Latest Coastal Weather Observations for Legendre Island

IDW60701

Issued at 5:23 am WST Wednesday 18 January 2017 (issued every 10 minutes, with the page automatically refreshed every 10 minutes)

About coastal observations | Map of coastal stations | Coastal observations for WA | Marine services | Other Formats
Station Details ID: 004095 Name: LEGENDRE ISLAND Lat: -20.36 Lon: 116.84 Height: 29.0 m
Data from the previous 72 hours. | See also: Recent months at Legendre Island
Date/Time
WST
Temp
°C
Wind Pressure Rain since
9am
mm
Weather Cloud Vis
km
Sea
Height
m
Swell
Dir  Spd
kts
Gust
kts
hPa Trend Height
m
Period
s
Dir
18/05:00am 26.3 W 11 13 1006.1 - - - - - - - - -
18/04:30am 26.3 W 12 15 1006.1 - - - - - - - - -
18/04:00am 26.5 W 12 15 1005.9 - - - - - - - - -
18/03:30am 26.4 W 11 13 1006.0 - - - - - - - - -
18/03:00am 26.6 WSW 12 16 1006.0 - - - - - - - - -
18/02:30am 26.5 W 14 17 1005.8 - - - - - - - - -
18/02:00am 26.6 WSW 15 18 1005.9 - - - - - - - - -
18/01:30am 26.8 WSW 14 17 1006.3 - - - - - - - - -
18/01:00am 26.8 W 14 17 1006.4 - - - - - - - - -
18/12:30am 26.9 W 16 19 1006.5 - - - - - - - - -
18/12:00am 26.9 W 16 20 1006.7 - - - - - - - - -
 
Date/Time
WST
Temp
°C
Wind Pressure Rain since
9am
mm
Weather Cloud Vis
km
Sea
Height
m
Swell
Dir  Spd
kts
Gust
kts
hPa Trend Height
m
Period
s
Dir
17/11:30pm 27.0 W 16 19 1006.9 - - - - - - - - -
17/11:00pm 27.0 W 15 19 1007.1 - - - - - - - - -
17/10:30pm 27.0 W 16 19 1007.2 - - - - - - - - -
17/10:00pm 26.9 W 16 19 1007.1 - - - - - - - - -
17/09:30pm 26.9 WNW 15 18 1006.8 - - - - - - - - -
17/09:00pm 27.0 W 14 17 1006.8 - - - - - - - - -
17/08:30pm 27.2 W 14 17 1006.5 - - - - - - - - -
17/08:00pm 27.2 W 15 18 1006.2 - - - - - - - - -
17/07:30pm 27.5 W 14 17 1005.7 - - - - - - - - -
17/07:00pm 27.6 W 13 17 1005.3 - - - - - - - - -
17/06:30pm 28.2 W 14 17 1004.9 - - - - - - - - -
17/06:00pm 28.9 W 14 16 1004.5 - - - - - - - - -
17/05:30pm 29.2 W 13 16 1004.3 - - - - - - - - -
17/05:00pm 29.9 W 13 15 1004.2 - - - - - - - - -
17/04:30pm 30.2 W 12 15 1004.1 - - - - - - - - -
17/04:00pm 31.0 W 11 14 1004.2 - - - - - - - - -
17/03:30pm 30.9 WNW 10 13 1004.5 - - - - - - - - -
17/03:00pm 30.6 WNW 9 12 1004.9 - - - - - - - - -
17/02:30pm 30.4 WNW 9 12 1005.2 - - - - - - - - -
17/02:00pm 31.1 WNW 8 11 1005.4 - - - - - - - - -
17/01:30pm 30.8 WNW 10 13 1005.6 - - - - - - - - -
17/01:00pm 31.1 WNW 9 13 1005.8 - - - - - - - - -
17/12:30pm 30.9 W 9 11 1005.9 - - - - - - - - -
17/12:00pm 30.4 W 9 11 1006.1 - - - - - - - - -
17/11:30am 31.0 WNW 9 12 1006.3 - - - - - - - - -
17/11:00am 30.6 W 8 11 1006.3 - - - - - - - - -
17/10:30am 30.6 WNW 8 10 1006.6 - - - - - - - - -
17/10:00am 30.3 WNW 8 11 1006.6 - - - - - - - - -
17/09:30am 29.4 WNW 7 11 1006.5 - - - - - - - - -
17/09:00am 29.6 W 7 10 1006.5 - - - - - - - - -
17/08:30am 29.2 W 6 9 1006.8 - - - - - - - - -
17/08:00am 28.8 W 6 8 1006.7 - - - - - - - - -
17/07:30am 28.0 W 7 8 1006.8 - - - - - - - - -
17/07:00am 27.6 W 5 7 1006.7 - - - - - - - - -
17/06:30am 26.8 W 7 9 1006.6 - - - - - - - - -
17/06:00am 26.2 WNW 8 9 1006.5 - - - - - - - - -
17/05:30am 26.0 WNW 8 11 1006.0 - - - - - - - - -
17/05:00am 26.2 W 8 11 1005.5 - - - - - - - - -
17/04:30am 26.1 W 8 10 1005.3 - - - - - - - - -
17/04:00am 26.2 W 9 11 1005.2 - - - - - - - - -
17/03:30am 26.6 W 10 12 1005.1 - - - - - - - - -
17/03:00am 26.6 W 8 10 1004.9 - - - - - - - - -
17/02:30am 26.4 W 10 12 1005.0 - - - - - - - - -
17/02:00am 26.9 W 11 14 1005.1 - - - - - - - - -
17/01:30am 26.7 W 10 12 1005.3 - - - - - - - - -
17/01:00am 27.1 W 12 15 1005.3 - - - - - - - - -
17/12:30am 27.1 W 8 10 1005.7 - - - - - - - - -
17/12:00am 27.1 W 10 13 1006.1 - - - - - - - - -
 
Date/Time
WST
Temp
°C
Wind Pressure Rain since
9am
mm
Weather Cloud Vis
km
Sea
Height
m
Swell
Dir  Spd
kts
Gust
kts
hPa Trend Height
m
Period
s
Dir
16/11:30pm 27.2 W 8 9 1006.7 - - - - - - - - -
16/11:00pm 27.1 W 8 10 1006.9 - - - - - - - - -
16/10:30pm 27.1 W 9 10 1007.0 - - - - - - - - -
16/10:00pm 27.3 W 11 13 1006.7 - - - - - - - - -
16/09:30pm 27.1 W 10 13 1006.5 - - - - - - - - -
16/09:00pm 27.2 W 10 13 1006.2 - - - - - - - - -
16/08:30pm 27.4 W 11 13 1005.9 - - - - - - - - -
16/08:00pm 27.4 W 10 11 1005.6 - - - - - - - - -
16/07:30pm 27.5 W 9 12 1005.2 - - - - - - - - -
16/07:00pm 27.7 W 9 12 1004.7 - - - - - - - - -
16/06:30pm 28.4 W 10 12 1004.3 - - - - - - - - -
16/06:00pm 29.3 W 11 12 1004.0 - - - - - - - - -
16/05:30pm 29.6 W 10 13 1003.9 - - - - - - - - -
16/05:00pm 30.4 WNW 10 13 1004.1 - - - - - - - - -
16/04:30pm 30.3 WNW 11 13 1004.2 - - - - - - - - -
16/04:00pm 30.7 NW 10 13 1004.2 - - - - - - - - -
16/03:30pm 30.8 WNW 11 13 1004.5 - - - - - - - - -
16/03:00pm 30.7 WNW 9 12 1004.7 - - - - - - - - -
16/02:30pm 30.5 WNW 8 10 1004.9 - - - - - - - - -
16/02:00pm 31.4 WNW 8 11 1005.2 - - - - - - - - -
16/01:30pm 30.9 NW 8 11 1005.3 - - - - - - - - -
16/01:00pm 31.2 WNW 7 10 1005.5 - - - - - - - - -
16/12:30pm 31.4 W 8 10 1005.7 - - - - - - - - -
16/12:00pm 30.0 W 6 9 1005.9 - - - - - - - - -
16/11:30am 29.6 NNW 4 5 1006.1 - - - - - - - - -
16/11:00am 30.2 NNW 4 5 1006.5 - - - - - - - - -
16/10:30am 30.1 W 5 6 1006.7 - - - - - - - - -
16/10:00am 30.8 W 7 10 1006.8 - - - - - - - - -
16/09:30am 30.9 W 8 9 1006.8 - - - - - - - - -
16/09:00am 29.4 WSW 6 9 1006.8 - - - - - - - - -
16/08:30am 29.3 SW 7 9 1006.6 - - - - - - - - -
16/08:00am 28.9 SW 6 9 1006.6 - - - - - - - - -
16/07:30am 28.1 SW 7 9 1006.5 - - - - - - - - -
16/07:00am 27.8 SW 6 8 1006.4 - - - - - - - - -
16/06:30am 27.4 WSW 7 9 1006.1 - - - - - - - - -
16/06:00am 27.1 SW 5 6 1005.8 - - - - - - - - -
16/05:30am 27.0 SW 5 6 1005.6 - - - - - - - - -
16/05:00am 26.8 WSW 6 8 1005.2 - - - - - - - - -
16/04:30am 26.6 WSW 6 7 1005.1 - - - - - - - - -
16/04:00am 26.7 WSW 7 8 1005.0 - - - - - - - - -
16/03:30am 26.6 WSW 6 7 1005.0 - - - - - - - - -
16/03:00am 26.6 SW 5 7 1005.1 - - - - - - - - -
16/02:30am 26.7 WSW 6 7 1005.3 - - - - - - - - -
16/02:00am 26.8 WSW 6 7 1005.4 - - - - - - - - -
16/01:30am 27.0 W 6 7 1005.5 - - - - - - - - -
16/01:00am 27.1 WNW 6 7 1005.8 - - - - - - - - -
16/12:30am 27.2 WNW 5 7 1006.1 - - - - - - - - -
16/12:00am 27.6 NW 7 8 1006.3 - - - - - - - - -
 
Date/Time
WST
Temp
°C
Wind Pressure Rain since
9am
mm
Weather Cloud Vis
km
Sea
Height
m
Swell
Dir  Spd
kts
Gust
kts
hPa Trend Height
m
Period
s
Dir
15/11:30pm 27.7 N 7 9 1006.5 - - - - - - - - -
15/11:00pm 27.9 N 8 9 1006.6 - - - - - - - - -
15/10:30pm 27.9 N 8 9 1006.7 - - - - - - - - -
15/10:00pm 28.0 N 7 8 1006.7 - - - - - - - - -
15/09:30pm 28.0 N 7 7 1006.6 - - - - - - - - -
15/09:00pm 28.0 N 6 7 1006.4 - - - - - - - - -
15/08:30pm 28.0 N 7 8 1006.4 - - - - - - - - -
15/08:00pm 28.0 N 8 9 1006.1 - - - - - - - - -
15/07:30pm 28.1 N 8 9 1005.6 - - - - - - - - -
15/07:00pm 28.1 N 9 10 1005.3 - - - - - - - - -
15/06:30pm 28.4 N 10 11 1005.1 - - - - - - - - -
15/06:00pm 28.7 N 9 11 1004.7 - - - - - - - - -
15/05:30pm 28.4 N 10 11 1004.4 - - - - - - - - -
15/05:00pm 29.0 N 9 11 1004.3 - - - - - - - - -
15/04:30pm 29.6 N 8 10 1004.3 - - - - - - - - -
15/04:00pm 29.6 N 8 9 1004.5 - - - - - - - - -
15/03:30pm 29.9 N 8 9 1004.7 - - - - - - - - -
15/03:00pm 29.8 N 8 9 1004.6 - - - - - - - - -
15/02:30pm 29.4 N 8 9 1004.9 - - - - - - - - -
15/02:00pm 29.9 N 8 9 1005.1 - - - - - - - - -
15/01:30pm 29.8 NNE 8 9 1005.5 - - - - - - - - -
15/01:00pm 30.1 NNE 7 8 1005.7 - - - - - - - - -
15/12:30pm 30.4 NNE 8 10 1005.7 - - - - - - - - -
15/12:00pm 30.0 N 7 8 1005.8 - - - - - - - - -
15/11:30am 30.1 N 4 6 1006.0 - - - - - - - - -
15/11:00am 29.4 N 3 4 1006.1 - - - - - - - - -
15/10:30am 29.4 NE 3 5 1006.3 - - - - - - - - -
15/10:00am 28.6 N 2 4 1006.1 - - - - - - - - -
15/09:30am 27.7 NNE 2 4 1006.2 - - - - - - - - -
15/09:00am 27.1 SSW 6 7 1006.1 - - - - - - - - -
15/08:30am 26.8 SSW 6 7 1006.1 - - - - - - - - -
15/08:00am 26.1 SSW 6 8 1006.4 - - - - - - - - -
15/07:30am 25.7 SSW 7 9 1006.4 - - - - - - - - -
15/07:00am 26.1 SW 10 13 1006.1 - - - - - - - - -
15/06:30am 25.9 S 7 9 1005.8 - - - - - - - - -
15/06:00am 26.1 S 7 8 1005.6 - - - - - - - - -
15/05:30am 26.3 SW 7 8 1005.3 - - - - - - - - -

Other Formats:

Comma delimited format used in spreadsheet applications
http://www.bom.gov.au/fwo/IDW60701/IDW60701.94307.axf

JavaScript Object Notation format (JSON) in row-major order
http://www.bom.gov.au/fwo/IDW60701/IDW60701.94307.json